Time;durP1;ratioP1;P1;durP2;ratioP2;P2;SDS_P1;SDS_P2;PMS_P1;PMS_P2;Temp;Humidity;BMP_temperature;BMP_pressure;BME280_temperature;BME280_humidity;BME280_pressure;Samples;Min_cycle;Max_cycle;Signal;HPM_P1;HPM_P2
2023/01/15 00:02:04;;;;;;;0.80;0.70;;;;;;;12.26;73.74;95774.22;5018666;28;20037;-73
2023/01/15 00:04:29;;;;;;;1.33;0.70;;;;;;;12.18;73.62;95751.38;5009718;28;20051;-79
2023/01/15 00:06:54;;;;;;;2.20;1.05;;;;;;;11.92;74.37;95748.47;5010212;28;20513;-77
2023/01/15 00:09:20;;;;;;;1.58;0.73;;;;;;;12.31;73.39;95758.44;5027653;28;20725;-76
2023/01/15 00:11:45;;;;;;;0.98;0.63;;;;;;;12.39;73.12;95756.22;5024919;28;20069;-76
2023/01/15 00:14:11;;;;;;;0.98;0.70;;;;;;;12.06;73.90;95761.53;5025781;28;20037;-76
2023/01/15 00:16:39;;;;;;;1.55;0.70;;;;;;;12.55;72.80;95760.09;5027633;28;20033;-76
2023/01/15 00:19:07;;;;;;;0.95;0.50;;;;;;;12.59;72.23;95731.56;5005049;28;20400;-76
2023/01/15 00:21:32;;;;;;;0.70;0.50;;;;;;;12.25;73.02;95733.53;5027156;28;20042;-82
2023/01/15 00:29:26;;;;;;;1.30;0.55;;;;;;;12.38;72.71;95726.75;5003466;28;20069;-76
2023/01/15 00:32:03;;;;;;;0.45;0.40;;;;;;;11.77;75.01;95718.16;5016820;28;20045;-78
2023/01/15 00:34:29;;;;;;;1.13;0.40;;;;;;;12.15;73.76;95710.25;5011379;28;20603;-75
2023/01/15 00:36:55;;;;;;;0.70;0.63;;;;;;;12.43;72.94;95721.44;5001781;28;20069;-77
2023/01/15 00:39:22;;;;;;;0.40;0.40;;;;;;;12.16;73.68;95722.22;5004429;28;20084;-76
2023/01/15 00:41:48;;;;;;;0.82;0.43;;;;;;;12.60;72.64;95713.00;5011491;28;20028;-77
2023/01/15 00:44:14;;;;;;;0.50;0.50;;;;;;;12.57;72.14;95723.25;5026990;28;20037;-82
2023/01/15 00:46:39;;;;;;;1.10;0.40;;;;;;;12.00;74.28;95706.06;5006525;28;20057;-78
2023/01/15 00:49:05;;;;;;;0.52;0.30;;;;;;;12.23;73.27;95698.34;5015996;28;20033;-77
2023/01/15 00:51:30;;;;;;;0.80;0.43;;;;;;;12.47;73.07;95709.31;5026114;28;20052;-76
2023/01/15 00:53:56;;;;;;;0.60;0.40;;;;;;;12.22;73.97;95700.19;5024193;28;20128;-77
2023/01/15 00:56:21;;;;;;;0.57;0.30;;;;;;;12.46;72.89;95707.78;4991966;28;20419;-76
2023/01/15 00:58:47;;;;;;;0.75;0.70;;;;;;;12.43;72.50;95705.00;5026266;28;20083;-77
2023/01/15 01:01:13;;;;;;;0.73;0.40;;;;;;;12.26;73.84;95716.03;5023324;28;20097;-76
2023/01/15 01:03:38;;;;;;;0.85;0.40;;;;;;;12.30;72.98;95683.06;5017379;28;20037;-76
2023/01/15 01:06:04;;;;;;;1.40;0.40;;;;;;;12.34;73.79;95700.47;4987324;28;20398;-76
2023/01/15 01:08:29;;;;;;;1.23;0.40;;;;;;;12.34;73.00;95699.69;5020317;28;20033;-76
2023/01/15 01:11:09;;;;;;;0.57;0.30;;;;;;;12.49;72.85;95709.03;5015515;28;20148;-77
2023/01/15 01:13:36;;;;;;;1.67;0.43;;;;;;;12.41;73.47;95709.75;5023138;28;20460;-77
2023/01/15 01:16:02;;;;;;;0.50;0.40;;;;;;;12.12;74.30;95703.00;4983468;28;20040;-77
2023/01/15 01:18:28;;;;;;;1.17;0.52;;;;;;;12.61;72.03;95708.53;5014987;28;20502;-76
2023/01/15 01:20:53;;;;;;;0.60;0.40;;;;;;;12.61;72.40;95708.53;5022634;28;20033;-76
2023/01/15 01:23:19;;;;;;;0.32;0.30;;;;;;;12.58;72.08;95715.13;5021905;28;20029;-77
2023/01/15 01:25:44;;;;;;;0.35;0.30;;;;;;;12.48;73.14;95721.31;5025583;28;20033;-76
2023/01/15 01:28:10;;;;;;;1.05;0.38;;;;;;;12.68;72.45;95740.25;5007711;28;20044;-76
2023/01/15 01:30:36;;;;;;;1.00;0.47;;;;;;;12.81;71.82;95733.47;5013463;28;20276;-76
2023/01/15 01:33:02;;;;;;;0.40;0.38;;;;;;;12.90;71.20;95736.91;5013577;28;20025;-76
2023/01/15 01:35:27;;;;;;;0.60;0.20;;;;;;;12.68;71.65;95730.59;5001780;28;20037;-77
2023/01/15 01:37:54;;;;;;;0.22;0.20;;;;;;;12.64;72.20;95734.84;5009098;28;20045;-76
2023/01/15 01:40:19;;;;;;;0.40;0.30;;;;;;;12.68;71.65;95741.03;5009644;28;20047;-76
2023/01/15 01:42:45;;;;;;;0.40;0.30;;;;;;;12.77;71.74;95735.13;5022525;28;20076;-76
2023/01/15 01:45:32;;;;;;;0.38;0.30;;;;;;;13.02;70.77;95746.84;4990941;28;20025;-77
2023/01/15 01:48:02;;;;;;;1.10;0.20;;;;;;;13.14;70.35;95752.31;5004209;28;20026;-76
2023/01/15 01:50:28;;;;;;;0.65;0.30;;;;;;;12.92;70.85;95751.25;5020637;28;20034;-77
2023/01/15 01:53:05;;;;;;;1.20;0.25;;;;;;;13.18;70.45;95752.50;5008382;28;20493;-77
2023/01/15 01:55:32;;;;;;;0.32;0.20;;;;;;;13.08;70.25;95758.75;5000673;28;20035;-76
2023/01/15 01:58:00;;;;;;;0.20;0.20;;;;;;;13.01;70.25;95768.84;4988053;28;20092;-76
2023/01/15 02:00:25;;;;;;;0.28;0.28;;;;;;;13.15;69.24;95769.56;5023456;28;20420;-73
2023/01/15 02:02:51;;;;;;;0.70;0.17;;;;;;;13.08;69.19;95766.59;5015183;28;20026;-74
2023/01/15 02:05:25;;;;;;;0.40;0.30;;;;;;;13.18;68.81;95774.22;5007847;28;20029;-74
2023/01/15 02:07:50;;;;;;;0.55;0.30;;;;;;;13.00;69.41;95778.50;5023920;28;20555;-72
2023/01/15 02:10:16;;;;;;;0.65;0.20;;;;;;;13.02;69.35;95783.44;5011986;28;20037;-73
2023/01/15 02:12:46;;;;;;;0.20;0.20;;;;;;;13.07;69.13;95783.31;5024767;28;20045;-72
2023/01/15 02:15:18;;;;;;;0.28;0.15;;;;;;;13.08;68.39;95785.66;5009412;28;20037;-72
2023/01/15 02:17:56;;;;;;;0.17;0.10;;;;;;;13.07;68.13;95786.72;5006207;28;20046;-73
2023/01/15 02:20:29;;;;;;;0.20;0.20;;;;;;;12.99;67.96;95792.66;5010476;28;20073;-73
2023/01/15 02:23:17;;;;;;;0.10;0.10;;;;;;;12.72;67.82;95789.00;4992774;28;20033;-71
2023/01/15 02:26:00;;;;;;;0.30;0.10;;;;;;;12.62;68.40;95802.25;5023185;28;20175;-72
2023/01/15 02:28:29;;;;;;;0.10;0.10;;;;;;;12.62;68.07;95801.50;5025659;28;20045;-73
2023/01/15 02:31:08;;;;;;;2.72;0.10;;;;;;;12.71;67.33;95804.94;5020343;28;20048;-73
2023/01/15 02:33:57;;;;;;;0.30;0.10;;;;;;;12.66;67.03;95797.22;5015676;28;20267;-74
2023/01/15 02:36:23;;;;;;;0.82;0.15;;;;;;;12.46;67.38;95801.00;5024274;28;20045;-73
2023/01/15 02:38:50;;;;;;;0.65;0.10;;;;;;;12.55;67.21;95794.81;5011001;28;20165;-73
2023/01/15 02:41:19;;;;;;;0.20;0.20;;;;;;;12.54;67.17;95802.91;4994889;28;20029;-72
2023/01/15 02:43:50;;;;;;;0.10;0.10;;;;;;;12.58;66.76;95808.34;5010867;28;20330;-74
2023/01/15 02:46:16;;;;;;;0.20;0.20;;;;;;;12.43;67.05;95809.41;5010032;28;20460;-74
2023/01/15 02:48:45;;;;;;;0.10;0.10;;;;;;;12.49;66.97;95811.66;5024330;28;20033;-73
2023/01/15 02:51:18;;;;;;;0.20;0.20;;;;;;;12.50;66.76;95817.63;5012436;28;20128;-73
2023/01/15 02:53:45;;;;;;;0.10;0.10;;;;;;;12.42;67.23;95826.91;4978292;28;20033;-71
2023/01/15 02:56:14;;;;;;;0.15;0.10;;;;;;;12.40;66.92;95834.25;4992228;28;20034;-72
2023/01/15 02:58:41;;;;;;;0.38;0.10;;;;;;;12.45;66.45;95831.53;5009936;28;20489;-73
2023/01/15 03:01:20;;;;;;;0.10;0.10;;;;;;;12.58;66.18;95824.78;5002680;28;20029;-73
2023/01/15 03:03:52;;;;;;;0.10;0.10;;;;;;;12.51;66.39;95829.63;5023151;28;20044;-73
2023/01/15 03:06:24;;;;;;;0.20;0.10;;;;;;;12.43;66.31;95840.75;5011561;28;20040;-74
2023/01/15 03:08:50;;;;;;;0.10;0.10;;;;;;;12.31;67.15;95847.19;5008813;28;20506;-75
2023/01/15 03:11:17;;;;;;;0.20;0.20;;;;;;;12.30;66.97;95852.69;5009866;28;20092;-73
2023/01/15 03:14:00;;;;;;;0.38;0.20;;;;;;;12.28;66.39;95857.44;5011699;28;20045;-73
2023/01/15 03:16:43;;;;;;;0.43;0.15;;;;;;;12.26;66.53;95849.88;5028571;28;20108;-72
2023/01/15 03:19:41;;;;;;;0.10;0.10;;;;;;;12.31;66.07;95852.41;5027641;28;20043;-74
2023/01/15 03:22:22;;;;;;;0.88;0.10;;;;;;;12.33;66.07;95857.34;5024967;28;20040;-74
2023/01/15 03:24:53;;;;;;;0.35;0.20;;;;;;;12.26;66.71;95868.16;5028053;28;20132;-73
2023/01/15 03:27:20;;;;;;;0.38;0.10;;;;;;;12.18;66.32;95851.34;4994685;28;20025;-74
2023/01/15 03:29:57;;;;;;;0.10;0.10;;;;;;;12.26;66.61;95859.56;4992037;28;20050;-72
2023/01/15 03:32:24;;;;;;;0.13;0.10;;;;;;;12.07;66.68;95854.41;5021596;28;20036;-72
2023/01/15 03:34:52;;;;;;;0.63;0.13;;;;;;;12.09;66.11;95858.25;5003575;28;20079;-74
2023/01/15 03:37:23;;;;;;;0.13;0.13;;;;;;;12.13;66.38;95854.03;5011057;28;20121;-73
2023/01/15 03:39:49;;;;;;;0.20;0.20;;;;;;;12.04;66.68;95852.34;5025064;28;20044;-74
2023/01/15 03:42:26;;;;;;;0.82;0.20;;;;;;;12.15;66.24;95859.72;5018606;28;20033;-74
2023/01/15 03:45:16;;;;;;;0.10;0.10;;;;;;;12.18;66.42;95864.38;5024656;28;20489;-73
2023/01/15 03:47:41;;;;;;;0.88;0.20;;;;;;;11.95;66.56;95871.25;5022036;28;20082;-74
2023/01/15 03:50:15;;;;;;;0.60;0.30;;;;;;;12.09;65.98;95866.06;5028686;28;20037;-73
2023/01/15 03:53:05;;;;;;;0.40;0.13;;;;;;;12.17;65.89;95873.25;5021200;28;20026;-74
2023/01/15 03:56:10;;;;;;;0.20;0.20;;;;;;;11.98;66.25;95869.94;5018833;28;20070;-71
2023/01/15 03:58:56;;;;;;;0.35;0.20;;;;;;;11.97;65.61;95876.19;5003906;28;20710;-76
2023/01/15 04:01:30;;;;;;;0.30;0.20;;;;;;;11.86;65.88;95886.00;5002267;28;20033;-76
2023/01/15 04:03:57;;;;;;;0.20;0.20;;;;;;;11.18;65.91;95892.38;5016522;28;20034;-77
2023/01/15 04:06:25;;;;;;;0.10;0.10;;;;;;;11.00;65.98;95904.28;5021879;28;20033;-77
2023/01/15 04:08:50;;;;;;;0.30;0.20;;;;;;;10.66;65.84;95905.97;4993263;28;20515;-75
2023/01/15 04:11:24;;;;;;;0.10;0.10;;;;;;;10.92;65.59;95902.31;5009744;28;20077;-75
2023/01/15 04:13:50;;;;;;;0.10;0.10;;;;;;;10.61;66.39;95902.63;5023025;28;20075;-76
2023/01/15 04:16:22;;;;;;;0.15;0.10;;;;;;;10.79;65.64;95898.53;5026228;28;20061;-76
2023/01/15 04:18:47;;;;;;;0.10;0.10;;;;;;;10.77;66.84;95887.63;5007138;28;20033;-76
2023/01/15 04:21:12;;;;;;;0.10;0.10;;;;;;;10.85;66.12;95881.81;5024416;28;20057;-76
2023/01/15 04:23:38;;;;;;;0.10;0.10;;;;;;;10.83;65.43;95891.72;5027255;28;20026;-77
2023/01/15 04:26:03;;;;;;;0.52;0.15;;;;;;;10.86;65.70;95883.34;5027827;28;20038;-76
2023/01/15 04:28:29;;;;;;;0.77;0.10;;;;;;;10.67;66.31;95881.47;5013426;28;20033;-75
2023/01/15 04:30:56;;;;;;;0.30;0.20;;;;;;;10.87;65.66;95880.47;5026454;28;20047;-76
2023/01/15 04:33:21;;;;;;;0.82;0.10;;;;;;;10.76;65.33;95899.88;5022618;28;20041;-75
2023/01/15 04:35:47;;;;;;;0.30;0.10;;;;;;;10.65;65.59;95893.22;5018885;28;20029;-76
2023/01/15 04:38:12;;;;;;;0.25;0.10;;;;;;;10.65;65.55;95901.78;4985607;28;20030;-76
2023/01/15 04:46:05;;;;;;;0.30;0.20;;;;;;;10.40;65.45;95910.63;5027213;28;20052;-76
2023/01/15 04:48:31;;;;;;;0.40;0.20;;;;;;;10.34;66.18;95918.75;5035321;28;20382;-76
2023/01/15 04:50:56;;;;;;;0.20;0.20;;;;;;;10.07;66.75;95922.56;5023856;28;20072;-76
2023/01/15 04:53:21;;;;;;;0.20;0.20;;;;;;;10.32;65.86;95931.25;5020727;28;20076;-76
2023/01/15 04:55:47;;;;;;;1.52;0.20;;;;;;;10.06;65.51;95919.19;5020944;28;20034;-76
2023/01/15 04:58:12;;;;;;;0.30;0.10;;;;;;;10.15;65.71;95926.41;5020031;28;20033;-76
2023/01/15 05:00:39;;;;;;;0.73;0.20;;;;;;;10.06;65.75;95916.59;5024692;28;20061;-76
2023/01/15 05:03:04;;;;;;;0.30;0.20;;;;;;;10.00;65.45;95924.69;5025374;28;20409;-75
2023/01/15 05:05:31;;;;;;;0.20;0.20;;;;;;;10.04;65.62;95941.28;5022713;28;20037;-76
2023/01/15 05:07:56;;;;;;;0.20;0.20;;;;;;;10.05;65.25;95933.22;5025963;28;20044;-76
2023/01/15 05:10:22;;;;;;;0.20;0.10;;;;;;;10.07;65.67;95927.75;5025697;28;20041;-76
2023/01/15 05:12:47;;;;;;;0.30;0.10;;;;;;;9.92;66.82;95928.63;5010717;28;20038;-76
2023/01/15 05:15:12;;;;;;;0.73;0.30;;;;;;;9.99;66.17;95946.53;5010132;28;20099;-76
2023/01/15 05:17:38;;;;;;;0.30;0.30;;;;;;;9.99;65.82;95946.53;5027382;28;20056;-76
2023/01/15 05:20:04;;;;;;;0.50;0.20;;;;;;;10.02;66.12;95946.00;5026280;28;20044;-76
2023/01/15 05:22:29;;;;;;;0.20;0.20;;;;;;;10.02;66.15;95941.56;5007347;28;20041;-76
2023/01/15 05:24:54;;;;;;;0.80;0.52;;;;;;;9.99;66.52;95943.94;4998000;28;20038;-76
2023/01/15 05:27:20;;;;;;;0.30;0.30;;;;;;;9.87;66.18;95952.84;5026875;28;20087;-77
2023/01/15 05:29:46;;;;;;;0.35;0.20;;;;;;;9.78;66.56;95951.84;5009296;28;20124;-76
2023/01/15 05:32:12;;;;;;;0.20;0.20;;;;;;;9.86;66.41;95951.28;5008756;28;20401;-76
2023/01/15 05:34:37;;;;;;;0.28;0.20;;;;;;;9.61;66.74;95949.59;5007889;28;20036;-76
2023/01/15 05:37:02;;;;;;;0.22;0.10;;;;;;;9.76;66.19;95951.34;5026091;28;20109;-76
2023/01/15 05:39:28;;;;;;;0.55;0.10;;;;;;;9.77;65.60;95939.13;5022895;28;20038;-76
2023/01/15 05:41:53;;;;;;;0.10;0.10;;;;;;;9.26;67.17;95922.75;5010177;28;20029;-77
2023/01/15 05:44:24;;;;;;;0.22;0.10;;;;;;;9.49;67.20;95942.16;5008183;28;20034;-76
2023/01/15 05:46:52;;;;;;;0.20;0.10;;;;;;;9.57;66.57;95938.19;5026455;28;20044;-76
2023/01/15 05:49:20;;;;;;;0.60;0.40;;;;;;;9.66;66.73;95946.22;4993930;28;20456;-76
2023/01/15 05:51:46;;;;;;;0.10;0.10;;;;;;;9.54;66.56;95954.31;5008431;28;20037;-76
2023/01/15 05:54:17;;;;;;;0.20;0.10;;;;;;;9.50;67.59;95943.69;5009226;28;20033;-76
2023/01/15 05:56:44;;;;;;;0.40;0.10;;;;;;;9.53;66.83;95961.34;5026456;28;20033;-76
2023/01/15 05:59:22;;;;;;;0.10;0.10;;;;;;;9.32;67.03;95970.25;5028367;28;20076;-77
2023/01/15 06:01:47;;;;;;;0.10;0.10;;;;;;;9.33;67.47;95992.59;5025943;28;20484;-77
2023/01/15 06:04:13;;;;;;;0.10;0.10;;;;;;;9.36;67.30;96002.47;5004198;28;20034;-76
2023/01/15 06:06:39;;;;;;;0.15;0.15;;;;;;;9.43;67.07;96005.56;5029852;28;20132;-75
2023/01/15 06:09:05;;;;;;;0.20;0.20;;;;;;;9.15;67.20;96012.13;5028944;28;20037;-76
2023/01/15 06:11:31;;;;;;;0.20;0.20;;;;;;;9.37;66.62;95996.22;5023094;28;20060;-76
2023/01/15 06:13:56;;;;;;;0.73;0.20;;;;;;;9.37;66.46;95998.81;4993707;28;20038;-77
2023/01/15 06:16:22;;;;;;;0.20;0.10;;;;;;;9.40;66.84;96019.06;5028439;28;20664;-76
2023/01/15 06:18:47;;;;;;;0.10;0.10;;;;;;;9.39;66.39;96020.13;5012291;28;20163;-76
2023/01/15 06:21:13;;;;;;;0.10;0.10;;;;;;;9.18;65.90;96011.59;5028072;28;20026;-76
2023/01/15 06:23:39;;;;;;;0.10;0.10;;;;;;;9.23;67.05;95996.00;4999697;28;20033;-76
2023/01/15 06:26:13;;;;;;;0.65;0.10;;;;;;;9.05;67.61;95999.97;5025152;28;20064;-72
2023/01/15 06:28:39;;;;;;;0.10;0.10;;;;;;;8.80;68.08;96011.91;5012612;28;20026;-74
2023/01/15 06:31:05;;;;;;;0.10;0.10;;;;;;;8.78;67.27;96013.22;5026511;28;20446;-71
2023/01/15 06:33:31;;;;;;;0.15;0.08;;;;;;;8.88;67.33;96008.03;5015073;28;20029;-74
2023/01/15 06:35:56;;;;;;;2.33;0.45;;;;;;;8.94;67.67;96009.56;5023373;28;20044;-73
2023/01/15 06:38:21;;;;;;;0.10;0.10;;;;;;;9.06;67.09;96003.31;5029891;28;20082;-72
2023/01/15 06:40:47;;;;;;;0.63;0.10;;;;;;;8.96;67.39;96011.91;5006701;28;20116;-73
2023/01/15 06:48:42;;;;;;;0.25;0.10;;;;;;;8.66;67.23;96005.72;5015068;28;20037;-73
2023/01/15 06:51:08;;;;;;;0.20;0.10;;;;;;;8.59;67.99;96018.94;5012379;28;20041;-72
2023/01/15 06:53:33;;;;;;;0.20;0.10;;;;;;;8.64;67.67;96033.75;5012902;28;20037;-72
2023/01/15 06:56:00;;;;;;;0.10;0.10;;;;;;;8.58;67.80;96032.16;5011324;28;20041;-73
2023/01/15 06:58:25;;;;;;;0.10;0.10;;;;;;;8.69;67.30;96048.50;5028828;28;20508;-73
2023/01/15 07:00:55;;;;;;;0.50;0.10;;;;;;;8.79;67.21;96064.09;5003772;28;20345;-72
2023/01/15 07:03:22;;;;;;;0.63;0.10;;;;;;;8.53;68.37;96055.53;5028261;28;20820;-72
2023/01/15 07:05:47;;;;;;;0.10;0.10;;;;;;;8.26;67.97;96061.69;5014719;28;20029;-74
2023/01/15 07:08:13;;;;;;;0.10;0.10;;;;;;;8.28;68.56;96069.19;5035665;28;20387;-71
2023/01/15 07:10:39;;;;;;;0.20;0.10;;;;;;;8.35;67.62;96054.94;4997006;28;20026;-73
2023/01/15 07:13:04;;;;;;;0.10;0.00;;;;;;;8.33;67.65;96056.22;5010408;28;20489;-72
2023/01/15 07:15:30;;;;;;;0.10;0.10;;;;;;;8.53;67.63;96071.09;5007389;28;20082;-72
2023/01/15 07:17:56;;;;;;;1.27;0.10;;;;;;;8.60;67.23;96058.63;5028718;28;20164;-71
2023/01/15 07:20:22;;;;;;;0.10;0.10;;;;;;;8.59;67.12;96070.06;5029134;28;20507;-72
2023/01/15 07:22:51;;;;;;;0.57;0.10;;;;;;;8.78;67.07;96070.34;5028456;28;20041;-72
2023/01/15 07:25:16;;;;;;;0.30;0.30;;;;;;;8.54;67.06;96062.28;5022674;28;20049;-72
2023/01/15 07:27:42;;;;;;;0.30;0.20;;;;;;;8.43;67.36;96069.25;5009449;28;20719;-71
2023/01/15 07:30:07;;;;;;;0.10;0.10;;;;;;;8.43;67.71;96067.44;5015588;28;20033;-72
2023/01/15 07:32:33;;;;;;;0.40;0.10;;;;;;;8.44;67.57;96074.19;5027707;28;20086;-73
2023/01/15 07:34:58;;;;;;;0.25;0.10;;;;;;;8.48;67.92;96076.25;5000603;28;20099;-72
2023/01/15 07:37:23;;;;;;;0.10;0.10;;;;;;;8.61;67.44;96088.75;5020778;28;20025;-72
2023/01/15 07:39:49;;;;;;;0.13;0.10;;;;;;;8.69;67.36;96088.22;5029380;28;20033;-73
2023/01/15 07:50:26;;;;;;;0.20;0.10;;;;;;;7.99;69.22;96093.75;5004487;28;20562;-72
2023/01/15 07:52:51;;;;;;;0.22;0.20;;;;;;;8.28;68.54;96106.28;5013232;28;20034;-73
2023/01/15 07:55:17;;;;;;;0.70;0.20;;;;;;;8.51;67.07;96104.28;4987218;28;20400;-73
2023/01/15 07:57:42;;;;;;;0.52;0.20;;;;;;;8.33;68.64;96110.69;4982572;28;20045;-71
2023/01/15 08:00:11;;;;;;;0.45;0.20;;;;;;;8.24;68.52;96107.81;5009064;28;20025;-72
2023/01/15 08:02:36;;;;;;;1.20;0.20;;;;;;;8.43;68.06;96106.38;5008657;28;20021;-72
2023/01/15 08:05:02;;;;;;;1.10;0.10;;;;;;;8.44;68.39;96115.69;5024515;28;20083;-73
2023/01/15 08:07:27;;;;;;;1.10;0.20;;;;;;;8.37;68.08;96114.34;5021693;28;20044;-73
2023/01/15 08:09:53;;;;;;;0.40;0.10;;;;;;;8.43;67.41;96119.34;5009056;28;20073;-75
2023/01/15 08:15:15;;;;;;;1.40;0.20;;;;;;;8.19;67.91;96121.56;5013837;28;20033;-72
2023/01/15 08:17:43;;;;;;;0.30;0.10;;;;;;;8.31;67.94;96126.53;4988537;28;20022;-73
2023/01/15 08:20:15;;;;;;;2.35;0.55;;;;;;;8.48;67.57;96131.50;5025519;28;20029;-74
2023/01/15 08:22:40;;;;;;;0.30;0.20;;;;;;;8.44;66.94;96136.44;5009069;28;20541;-74
2023/01/15 08:25:07;;;;;;;0.80;0.30;;;;;;;8.33;67.83;96132.25;5010507;28;20128;-74
2023/01/15 08:27:32;;;;;;;1.30;0.20;;;;;;;8.36;68.23;96129.16;5027324;28;20026;-73
2023/01/15 08:29:58;;;;;;;1.10;0.30;;;;;;;8.43;67.52;96131.50;5012299;28;20091;-72
2023/01/15 08:32:23;;;;;;;1.02;0.45;;;;;;;7.87;69.38;96132.84;4992218;28;20036;-72
2023/01/15 08:34:49;;;;;;;1.70;0.17;;;;;;;8.40;67.52;96137.97;5003219;28;20032;-75
2023/01/15 08:37:14;;;;;;;0.93;0.13;;;;;;;8.52;66.96;96152.56;5008712;28;20405;-72
2023/01/15 08:39:40;;;;;;;2.38;0.20;;;;;;;8.50;67.34;96144.22;5007598;28;20128;-73
2023/01/15 08:42:05;;;;;;;0.88;0.30;;;;;;;8.52;67.16;96152.56;5007825;28;20076;-72
2023/01/15 08:44:31;;;;;;;0.35;0.10;;;;;;;8.68;66.96;96145.56;5008822;28;20116;-73
2023/01/15 08:46:57;;;;;;;2.40;0.30;;;;;;;8.56;67.22;96151.00;5003177;28;20769;-71
2023/01/15 08:49:22;;;;;;;3.05;0.50;;;;;;;8.49;67.00;96163.44;5002211;28;20112;-73
2023/01/15 08:51:50;;;;;;;0.95;0.20;;;;;;;8.57;67.05;96162.94;5020798;28;20113;-73
2023/01/15 08:54:18;;;;;;;1.15;0.45;;;;;;;8.43;67.24;96173.81;5009208;28;20041;-73
2023/01/15 08:56:43;;;;;;;0.90;0.20;;;;;;;8.51;67.44;96175.09;4998083;28;20033;-75
2023/01/15 08:59:09;;;;;;;0.90;0.30;;;;;;;8.67;66.59;96178.53;5006080;28;20129;-74
2023/01/15 09:01:34;;;;;;;1.63;0.30;;;;;;;8.47;67.37;96184.44;5005737;28;20021;-73
2023/01/15 09:04:00;;;;;;;2.60;0.20;;;;;;;8.56;66.84;96200.28;5014446;28;20029;-73
2023/01/15 09:06:25;;;;;;;3.35;0.40;;;;;;;8.59;67.15;96197.19;4987684;28;20026;-72
2023/01/15 09:08:51;;;;;;;0.60;0.30;;;;;;;8.68;66.96;96192.28;4986398;28;20041;-73
2023/01/15 09:11:16;;;;;;;1.05;0.20;;;;;;;8.61;66.90;96195.91;4999079;28;20125;-73
2023/01/15 09:13:42;;;;;;;1.13;0.30;;;;;;;8.47;66.86;96197.41;4984474;28;20026;-74
2023/01/15 09:16:08;;;;;;;2.83;0.28;;;;;;;8.52;67.19;96212.22;5020105;28;20141;-72
2023/01/15 09:18:36;;;;;;;1.33;0.82;;;;;;;8.23;68.16;96208.19;5011321;28;20037;-72
2023/01/15 09:21:02;;;;;;;2.63;0.28;;;;;;;8.12;67.83;96206.56;5018843;28;20556;-72
2023/01/15 09:23:28;;;;;;;0.95;0.30;;;;;;;8.22;68.33;96216.22;5003493;28;20065;-74
2023/01/15 09:25:58;;;;;;;1.77;0.30;;;;;;;8.31;68.31;96219.91;5022899;28;20059;-72
2023/01/15 09:28:25;;;;;;;3.30;0.30;;;;;;;7.94;68.89;96215.56;5011455;28;20032;-73
2023/01/15 09:30:53;;;;;;;0.88;0.30;;;;;;;8.24;68.57;96229.69;4989098;28;20053;-73
2023/01/15 09:33:19;;;;;;;0.55;0.20;;;;;;;7.79;69.52;96221.41;4987619;28;20025;-76
2023/01/15 09:35:44;;;;;;;1.75;0.30;;;;;;;8.23;68.02;96215.19;4978635;28;20124;-75
2023/01/15 09:38:15;;;;;;;1.55;0.30;;;;;;;8.62;67.22;96238.97;4985904;28;20370;-77
2023/01/15 09:40:55;;;;;;;1.50;0.20;;;;;;;8.81;66.95;96243.72;5009436;28;20067;-77
2023/01/15 09:43:20;;;;;;;2.47;0.22;;;;;;;8.62;67.16;96251.94;5009216;28;20038;-77
2023/01/15 09:45:53;;;;;;;1.05;0.30;;;;;;;8.71;66.95;96249.66;5023799;28;20369;-77
2023/01/15 09:48:41;;;;;;;1.63;0.20;;;;;;;8.78;67.09;96247.59;5015561;28;20044;-77
2023/01/15 09:51:29;;;;;;;0.32;0.30;;;;;;;8.69;67.06;96263.91;5008034;28;20558;-75
2023/01/15 09:53:55;;;;;;;0.73;0.50;;;;;;;8.71;66.85;96260.03;5025510;28;20137;-77
2023/01/15 09:56:26;;;;;;;0.50;0.20;;;;;;;8.74;66.60;96266.50;5021404;28;20216;-77
2023/01/15 09:58:52;;;;;;;1.83;0.20;;;;;;;8.47;67.44;96275.25;5009171;28;20060;-77
2023/01/15 10:01:22;;;;;;;0.93;0.63;;;;;;;8.43;67.89;96282.75;5022323;28;20393;-77
2023/01/15 10:04:12;;;;;;;1.17;0.20;;;;;;;8.73;67.20;96283.91;5023688;28;20768;-76
2023/01/15 10:06:44;;;;;;;0.70;0.30;;;;;;;8.37;67.92;96283.72;5009142;28;20039;-77
2023/01/15 10:09:30;;;;;;;0.60;0.60;;;;;;;8.62;67.36;96275.31;4990837;28;20439;-77
2023/01/15 10:15:01;;;;;;;1.17;0.30;;;;;;;8.77;66.19;96290.16;5006611;28;19920;-77
2023/01/15 10:17:33;;;;;;;0.45;0.20;;;;;;;8.43;67.16;96290.53;5010482;28;20065;-76
2023/01/15 10:19:59;;;;;;;1.33;0.60;;;;;;;8.17;67.62;96293.97;5026588;28;20480;-77
2023/01/15 10:22:43;;;;;;;0.38;0.10;;;;;;;8.55;66.53;96303.31;5026545;28;20030;-77
2023/01/15 10:25:16;;;;;;;1.33;0.40;;;;;;;8.43;67.01;96297.50;5016970;28;20037;-77
2023/01/15 10:27:45;;;;;;;1.45;0.43;;;;;;;8.58;66.49;96302.00;5026819;28;20033;-77
2023/01/15 10:30:28;;;;;;;1.80;0.28;;;;;;;8.46;66.91;96309.22;4991637;28;20117;-76
2023/01/15 10:32:57;;;;;;;1.38;0.20;;;;;;;8.59;66.11;96299.16;4986766;28;20034;-76
2023/01/15 10:35:31;;;;;;;1.17;0.30;;;;;;;8.46;65.92;96307.41;4980795;28;20021;-77
2023/01/15 10:38:05;;;;;;;1.20;0.43;;;;;;;8.40;66.39;96303.97;5009034;28;20057;-76
2023/01/15 10:40:31;;;;;;;1.20;0.73;;;;;;;8.38;66.61;96300.84;5035582;28;20049;-75
2023/01/15 10:43:07;;;;;;;0.57;0.30;;;;;;;8.56;66.30;96304.84;5038333;28;20044;-78
2023/01/15 10:45:40;;;;;;;1.15;0.40;;;;;;;8.53;66.65;96302.75;4981607;28;20044;-78
2023/01/15 10:48:13;;;;;;;1.25;0.30;;;;;;;8.46;66.37;96289.22;5017653;28;20085;-76
2023/01/15 10:50:38;;;;;;;2.15;0.40;;;;;;;8.19;66.54;96284.13;4993967;28;20585;-77
2023/01/15 10:53:35;;;;;;;1.38;0.47;;;;;;;8.61;65.98;96294.50;5026406;28;20116;-77
2023/01/15 10:56:07;;;;;;;2.35;1.10;;;;;;;8.48;66.49;96286.38;5004611;28;20246;-76
2023/01/15 10:58:46;;;;;;;2.33;0.80;;;;;;;8.12;66.41;96294.72;4994362;28;20186;-77
2023/01/15 11:01:15;;;;;;;0.73;0.32;;;;;;;8.23;66.29;96300.75;5007783;28;20511;-76
2023/01/15 11:03:42;;;;;;;2.20;0.50;;;;;;;8.09;66.51;96310.00;5015700;28;20029;-75
2023/01/15 11:06:29;;;;;;;1.58;0.60;;;;;;;8.29;66.29;96314.53;5017061;28;20096;-77
2023/01/15 11:08:56;;;;;;;2.17;0.50;;;;;;;8.24;66.41;96317.88;5029960;28;20037;-77
2023/01/15 11:19:41;;;;;;;1.27;0.20;;;;;;;8.07;66.14;96323.19;5014789;28;20030;-76
2023/01/15 11:22:16;;;;;;;0.75;0.20;;;;;;;8.03;66.62;96311.78;4993496;28;20107;-77
2023/01/15 11:24:54;;;;;;;0.90;0.22;;;;;;;8.32;65.71;96314.81;5012084;28;20036;-76
2023/01/15 11:27:23;;;;;;;0.60;0.10;;;;;;;8.19;65.56;96330.81;5020190;28;20045;-77
2023/01/15 11:29:54;;;;;;;2.08;0.77;;;;;;;8.13;66.36;96324.03;5008485;28;20037;-75
2023/01/15 11:32:32;;;;;;;1.05;0.40;;;;;;;8.11;65.17;96333.88;5019081;28;20029;-76
2023/01/15 11:35:17;;;;;;;1.40;0.20;;;;;;;7.80;66.96;96318.88;5021316;28;20045;-77
2023/01/15 11:37:43;;;;;;;1.65;0.40;;;;;;;7.46;67.89;96295.78;5010013;28;20052;-76
2023/01/15 11:40:35;;;;;;;1.48;0.30;;;;;;;7.88;66.28;96325.41;5027857;28;20092;-76
2023/01/15 11:51:30;;;;;;;1.00;0.40;;;;;;;8.21;65.72;96331.34;5018132;28;20564;-77
2023/01/15 11:54:01;;;;;;;1.85;0.40;;;;;;;8.32;65.88;96332.19;5006074;28;20413;-76
2023/01/15 11:56:30;;;;;;;1.17;0.50;;;;;;;8.02;66.84;96326.56;5018262;28;20525;-76
2023/01/15 11:58:57;;;;;;;2.03;0.40;;;;;;;7.99;65.73;96336.66;5006166;28;20116;-78
2023/01/15 12:01:32;;;;;;;2.20;0.40;;;;;;;8.06;66.92;96335.38;5018078;28;20367;-77
2023/01/15 12:03:59;;;;;;;2.88;0.35;;;;;;;8.10;66.90;96330.50;5019160;28;20120;-76
2023/01/15 12:06:26;;;;;;;1.40;0.47;;;;;;;8.42;66.14;96329.66;5004218;28;20030;-77
2023/01/15 12:09:14;;;;;;;2.15;0.57;;;;;;;8.63;64.87;96330.56;5025821;28;20038;-77
2023/01/15 12:12:01;;;;;;;1.50;0.30;;;;;;;8.17;64.62;96312.91;5015624;28;20150;-77
2023/01/15 12:14:44;;;;;;;2.47;0.40;;;;;;;8.07;63.38;96310.22;5019070;28;20440;-77
2023/01/15 12:17:41;;;;;;;2.72;0.63;;;;;;;7.91;65.72;96313.78;5020493;28;20044;-76
2023/01/15 12:20:25;;;;;;;5.70;0.45;;;;;;;8.51;64.56;96307.41;5016436;28;20049;-76
2023/01/15 12:23:19;;;;;;;1.42;0.20;;;;;;;8.44;64.66;96296.50;5020756;28;20037;-77
2023/01/15 12:26:05;;;;;;;1.48;0.38;;;;;;;8.70;63.85;96305.16;5022127;28;20095;-76
2023/01/15 12:28:34;;;;;;;0.98;0.30;;;;;;;8.76;63.78;96301.56;5003669;28;20029;-77
2023/01/15 12:31:04;;;;;;;2.15;0.35;;;;;;;8.81;64.62;96298.22;5007835;28;20600;-77
2023/01/15 12:33:38;;;;;;;1.23;0.30;;;;;;;8.59;64.01;96299.16;5001314;28;20042;-76
2023/01/15 12:36:20;;;;;;;2.00;1.07;;;;;;;8.79;63.51;96284.69;5024709;28;20045;-77
2023/01/15 12:38:46;;;;;;;2.42;0.52;;;;;;;8.69;63.48;96287.25;5028864;28;20526;-77